Hanson, Kentucky
Current Conditions -  °F | °C
As of 6:15 PM on Friday 19 Dec 2014 (Local Time) from K2I0 Reporting Station
Clear Clear  
Wind Chill: 34°   Ceiling: Unl
Heat Index: 34°   Visibility: 10mi
Dew Point: 27°   Wind: 3mph
Humidity: 76%   Direction: 40°NE
Pressure: 30.29"   Gusts: NA
Location:  37.42°N, 87.48°W
Report Text: K2I0 200015Z AUTO 04003KT 10SM CLR 01/M03 A3029 RMK AO2 T00111027
Loading
Personal Weather Stations






























Interactive Weather Map New forecast layout! Learn more

10-Day Weather Forecast

Advertisements
Track Severe Weather on mobile